sensor_id;sensor_type;location;lat;lon;timestamp;pressure;altitude;pressure_sealevel;temperature;humidity
62038;BME280;47991;42.974;12.082;2024-02-16T00:02:02;98293.55;;;4.50;75.72
62038;BME280;47991;42.974;12.082;2024-02-16T00:04:29;98295.31;;;4.53;75.77
62038;BME280;47991;42.974;12.082;2024-02-16T00:06:56;98294.62;;;4.56;75.98
62038;BME280;47991;42.974;12.082;2024-02-16T00:09:23;98299.17;;;4.57;76.26
62038;BME280;47991;42.974;12.082;2024-02-16T00:11:50;98297.24;;;4.54;75.95
62038;BME280;47991;42.974;12.082;2024-02-16T00:14:19;98298.45;;;4.51;75.23
62038;BME280;47991;42.974;12.082;2024-02-16T00:16:47;98297.23;;;4.51;75.68
62038;BME280;47991;42.974;12.082;2024-02-16T00:19:14;98300.38;;;4.50;75.62
62038;BME280;47991;42.974;12.082;2024-02-16T00:21:41;98297.38;;;4.47;75.18
62038;BME280;47991;42.974;12.082;2024-02-16T00:24:09;98298.77;;;4.43;75.32
62038;BME280;47991;42.974;12.082;2024-02-16T00:26:37;98295.95;;;4.39;75.91
62038;BME280;47991;42.974;12.082;2024-02-16T00:29:06;98294.70;;;4.36;75.78
62038;BME280;47991;42.974;12.082;2024-02-16T00:31:32;98295.92;;;4.33;76.45
62038;BME280;47991;42.974;12.082;2024-02-16T00:33:59;98298.53;;;4.29;76.57
62038;BME280;47991;42.974;12.082;2024-02-16T00:36:27;98293.26;;;4.27;76.48
62038;BME280;47991;42.974;12.082;2024-02-16T00:38:54;98293.08;;;4.25;76.23
62038;BME280;47991;42.974;12.082;2024-02-16T00:41:22;98290.61;;;4.20;76.72
62038;BME280;47991;42.974;12.082;2024-02-16T00:43:50;98294.11;;;4.19;77.20
62038;BME280;47991;42.974;12.082;2024-02-16T00:46:18;98293.73;;;4.18;77.85
62038;BME280;47991;42.974;12.082;2024-02-16T00:48:45;98298.09;;;4.13;77.59
62038;BME280;47991;42.974;12.082;2024-02-16T00:51:13;98295.64;;;4.14;77.26
62038;BME280;47991;42.974;12.082;2024-02-16T00:53:40;98298.28;;;4.15;77.98
62038;BME280;47991;42.974;12.082;2024-02-16T00:56:07;98294.61;;;4.16;76.99
62038;BME280;47991;42.974;12.082;2024-02-16T00:58:35;98290.41;;;4.18;76.90
62038;BME280;47991;42.974;12.082;2024-02-16T01:01:04;98291.31;;;4.21;76.96
62038;BME280;47991;42.974;12.082;2024-02-16T01:03:31;98290.09;;;4.21;77.07
62038;BME280;47991;42.974;12.082;2024-02-16T01:05:58;98287.09;;;4.19;76.93
62038;BME280;47991;42.974;12.082;2024-02-16T01:08:25;98285.52;;;4.17;77.09
62038;BME280;47991;42.974;12.082;2024-02-16T01:10:54;98286.02;;;4.13;77.56
62038;BME280;47991;42.974;12.082;2024-02-16T01:13:21;98285.47;;;4.09;78.73
62038;BME280;47991;42.974;12.082;2024-02-16T01:15:48;98285.62;;;4.05;78.87
62038;BME280;47991;42.974;12.082;2024-02-16T01:18:15;98284.23;;;4.06;77.38
62038;BME280;47991;42.974;12.082;2024-02-16T01:20:42;98284.05;;;4.04;78.43
62038;BME280;47991;42.974;12.082;2024-02-16T01:23:09;98282.64;;;4.04;78.87
62038;BME280;47991;42.974;12.082;2024-02-16T01:25:35;98281.77;;;4.04;78.32
62038;BME280;47991;42.974;12.082;2024-02-16T01:28:02;98274.75;;;4.03;78.17
62038;BME280;47991;42.974;12.082;2024-02-16T01:30:29;98271.77;;;4.01;78.72
62038;BME280;47991;42.974;12.082;2024-02-16T01:32:56;98270.03;;;4.01;79.08
62038;BME280;47991;42.974;12.082;2024-02-16T01:35:23;98267.58;;;4.01;78.79
62038;BME280;47991;42.974;12.082;2024-02-16T01:37:50;98260.75;;;4.02;78.42
62038;BME280;47991;42.974;12.082;2024-02-16T01:40:17;98262.53;;;4.07;80.26
62038;BME280;47991;42.974;12.082;2024-02-16T01:42:44;98258.51;;;4.07;79.83
62038;BME280;47991;42.974;12.082;2024-02-16T01:45:11;98253.63;;;4.11;79.07
62038;BME280;47991;42.974;12.082;2024-02-16T01:47:43;98252.77;;;4.14;79.00
62038;BME280;47991;42.974;12.082;2024-02-16T01:50:15;98249.79;;;4.13;78.45
62038;BME280;47991;42.974;12.082;2024-02-16T01:52:44;98246.48;;;4.13;78.87
62038;BME280;47991;42.974;12.082;2024-02-16T01:55:12;98246.10;;;4.09;79.36
62038;BME280;47991;42.974;12.082;2024-02-16T01:57:39;98245.19;;;4.02;79.85
62038;BME280;47991;42.974;12.082;2024-02-16T02:00:07;98239.73;;;3.97;80.89
62038;BME280;47991;42.974;12.082;2024-02-16T02:02:35;98236.75;;;3.93;81.18
62038;BME280;47991;42.974;12.082;2024-02-16T02:05:04;98233.77;;;3.91;80.95
62038;BME280;47991;42.974;12.082;2024-02-16T02:07:32;98232.16;;;3.88;81.40
62038;BME280;47991;42.974;12.082;2024-02-16T02:09:59;98227.62;;;3.88;80.56
62038;BME280;47991;42.974;12.082;2024-02-16T02:12:27;98222.90;;;3.89;80.37
62038;BME280;47991;42.974;12.082;2024-02-16T02:14:53;98223.23;;;3.86;80.94
62038;BME280;47991;42.974;12.082;2024-02-16T02:17:20;98221.27;;;3.81;81.31
62038;BME280;47991;42.974;12.082;2024-02-16T02:19:48;98216.16;;;3.73;81.41
62038;BME280;47991;42.974;12.082;2024-02-16T02:22:21;98213.16;;;3.68;81.17
62038;BME280;47991;42.974;12.082;2024-02-16T02:24:48;98212.46;;;3.69;81.09
62038;BME280;47991;42.974;12.082;2024-02-16T02:27:16;98212.28;;;3.67;80.77
62038;BME280;47991;42.974;12.082;2024-02-16T02:29:43;98212.09;;;3.65;81.92
62038;BME280;47991;42.974;12.082;2024-02-16T02:32:10;98209.45;;;3.63;81.16
62038;BME280;47991;42.974;12.082;2024-02-16T02:34:39;98208.40;;;3.62;81.23
62038;BME280;47991;42.974;12.082;2024-02-16T02:37:06;98210.31;;;3.60;81.85
62038;BME280;47991;42.974;12.082;2024-02-16T02:39:34;98210.29;;;3.57;81.49
62038;BME280;47991;42.974;12.082;2024-02-16T02:42:02;98209.58;;;3.54;81.24
62038;BME280;47991;42.974;12.082;2024-02-16T02:44:29;98211.98;;;3.50;81.73
62038;BME280;47991;42.974;12.082;2024-02-16T02:46:58;98211.08;;;3.46;82.17
62038;BME280;47991;42.974;12.082;2024-02-16T02:49:25;98212.10;;;3.41;82.44
62038;BME280;47991;42.974;12.082;2024-02-16T02:51:52;98207.69;;;3.35;82.86
62038;BME280;47991;42.974;12.082;2024-02-16T02:54:19;98207.88;;;3.35;82.46
62038;BME280;47991;42.974;12.082;2024-02-16T02:56:46;98204.38;;;3.36;82.83
62038;BME280;47991;42.974;12.082;2024-02-16T02:59:13;98205.95;;;3.36;82.66
62038;BME280;47991;42.974;12.082;2024-02-16T03:01:40;98203.31;;;3.34;82.79
62038;BME280;47991;42.974;12.082;2024-02-16T03:04:07;98202.79;;;3.33;82.55
62038;BME280;47991;42.974;12.082;2024-02-16T03:06:34;98204.71;;;3.33;82.08
62038;BME280;47991;42.974;12.082;2024-02-16T03:09:00;98200.14;;;3.31;81.80
62038;BME280;47991;42.974;12.082;2024-02-16T03:11:27;98201.71;;;3.30;82.35
62038;BME280;47991;42.974;12.082;2024-02-16T03:13:55;98204.66;;;3.27;82.86
62038;BME280;47991;42.974;12.082;2024-02-16T03:16:22;98204.61;;;3.21;82.88
62038;BME280;47991;42.974;12.082;2024-02-16T03:18:49;98204.41;;;3.17;82.64
62038;BME280;47991;42.974;12.082;2024-02-16T03:21:16;98204.05;;;3.15;83.23
62038;BME280;47991;42.974;12.082;2024-02-16T03:23:43;98203.86;;;3.14;82.65
62038;BME280;47991;42.974;12.082;2024-02-16T03:26:18;98204.91;;;3.14;82.75
62038;BME280;47991;42.974;12.082;2024-02-16T03:28:46;98206.45;;;3.10;82.47
62038;BME280;47991;42.974;12.082;2024-02-16T03:31:21;98208.01;;;3.09;82.45
62038;BME280;47991;42.974;12.082;2024-02-16T03:33:50;98209.76;;;3.09;82.65
62038;BME280;47991;42.974;12.082;2024-02-16T03:36:19;98207.80;;;3.05;82.17
62038;BME280;47991;42.974;12.082;2024-02-16T03:38:48;98205.80;;;2.96;84.03
62038;BME280;47991;42.974;12.082;2024-02-16T03:41:19;98208.54;;;2.90;83.20
62038;BME280;47991;42.974;12.082;2024-02-16T03:43:46;98209.38;;;2.86;84.45
62038;BME280;47991;42.974;12.082;2024-02-16T03:46:14;98212.33;;;2.83;83.99
62038;BME280;47991;42.974;12.082;2024-02-16T03:48:42;98208.98;;;2.81;85.05
62038;BME280;47991;42.974;12.082;2024-02-16T03:51:09;98207.39;;;2.79;85.22
62038;BME280;47991;42.974;12.082;2024-02-16T03:53:36;98214.90;;;2.78;85.35
62038;BME280;47991;42.974;12.082;2024-02-16T03:56:04;98214.18;;;2.76;85.62
62038;BME280;47991;42.974;12.082;2024-02-16T03:58:32;98215.73;;;2.76;85.05
62038;BME280;47991;42.974;12.082;2024-02-16T04:00:59;98217.52;;;2.77;85.40
62038;BME280;47991;42.974;12.082;2024-02-16T04:03:26;98221.54;;;2.79;85.03
62038;BME280;47991;42.974;12.082;2024-02-16T04:05:54;98215.98;;;2.81;85.36
62038;BME280;47991;42.974;12.082;2024-02-16T04:08:21;98217.25;;;2.87;85.07
62038;BME280;47991;42.974;12.082;2024-02-16T04:10:48;98218.14;;;2.91;85.28
62038;BME280;47991;42.974;12.082;2024-02-16T04:13:16;98221.63;;;2.89;85.22
62038;BME280;47991;42.974;12.082;2024-02-16T04:15:43;98220.37;;;2.85;84.77
62038;BME280;47991;42.974;12.082;2024-02-16T04:18:09;98227.52;;;2.85;85.98
62038;BME280;47991;42.974;12.082;2024-02-16T04:20:36;98228.04;;;2.83;86.27
62038;BME280;47991;42.974;12.082;2024-02-16T04:23:04;98225.77;;;2.83;85.57
62038;BME280;47991;42.974;12.082;2024-02-16T04:25:31;98225.96;;;2.86;85.65
62038;BME280;47991;42.974;12.082;2024-02-16T04:27:58;98218.50;;;2.89;85.77
62038;BME280;47991;42.974;12.082;2024-02-16T04:30:25;98217.11;;;2.92;86.36
62038;BME280;47991;42.974;12.082;2024-02-16T04:32:52;98218.36;;;2.95;86.07
62038;BME280;47991;42.974;12.082;2024-02-16T04:35:20;98215.95;;;2.97;85.75
62038;BME280;47991;42.974;12.082;2024-02-16T04:37:47;98216.50;;;3.02;85.54
62038;BME280;47991;42.974;12.082;2024-02-16T04:40:14;98213.04;;;3.05;85.28
62038;BME280;47991;42.974;12.082;2024-02-16T04:42:42;98215.02;;;3.10;85.32
62038;BME280;47991;42.974;12.082;2024-02-16T04:45:12;98211.89;;;3.13;85.09
62038;BME280;47991;42.974;12.082;2024-02-16T04:47:40;98214.88;;;3.16;85.89
62038;BME280;47991;42.974;12.082;2024-02-16T04:53:35;98204.35;;;3.12;85.77
62038;BME280;47991;42.974;12.082;2024-02-16T04:56:04;98206.48;;;3.13;85.72
62038;BME280;47991;42.974;12.082;2024-02-16T04:58:32;98206.50;;;3.15;85.32
62038;BME280;47991;42.974;12.082;2024-02-16T05:00:59;98209.64;;;3.16;85.19
62038;BME280;47991;42.974;12.082;2024-02-16T05:03:26;98206.66;;;3.15;85.55
62038;BME280;47991;42.974;12.082;2024-02-16T05:05:54;98203.67;;;3.13;86.08
62038;BME280;47991;42.974;12.082;2024-02-16T05:08:24;98204.52;;;3.11;86.22
62038;BME280;47991;42.974;12.082;2024-02-16T05:10:51;98203.98;;;3.09;86.03
62038;BME280;47991;42.974;12.082;2024-02-16T05:13:18;98205.55;;;3.07;85.78
62038;BME280;47991;42.974;12.082;2024-02-16T05:15:45;98203.11;;;3.08;86.14
62038;BME280;47991;42.974;12.082;2024-02-16T05:18:15;98199.25;;;3.07;86.05
62038;BME280;47991;42.974;12.082;2024-02-16T05:20:44;98195.77;;;3.07;86.94
62038;BME280;47991;42.974;12.082;2024-02-16T05:23:11;98200.13;;;3.07;86.40
62038;BME280;47991;42.974;12.082;2024-02-16T05:25:38;98198.21;;;3.08;86.42
62038;BME280;47991;42.974;12.082;2024-02-16T05:28:05;98198.41;;;3.10;86.84
62038;BME280;47991;42.974;12.082;2024-02-16T05:30:32;98197.75;;;3.15;87.23
62038;BME280;47991;42.974;12.082;2024-02-16T05:32:59;98200.05;;;3.17;87.61
62038;BME280;47991;42.974;12.082;2024-02-16T05:35:26;98203.36;;;3.17;87.91
62038;BME280;47991;42.974;12.082;2024-02-16T05:37:55;98205.93;;;3.12;90.70
62038;BME280;47991;42.974;12.082;2024-02-16T05:40:23;98201.86;;;3.06;89.40
62038;BME280;47991;42.974;12.082;2024-02-16T05:42:58;98202.56;;;3.07;88.89
62038;BME280;47991;42.974;12.082;2024-02-16T05:45:26;98203.10;;;3.08;88.16
62038;BME280;47991;42.974;12.082;2024-02-16T05:47:55;98207.12;;;3.07;87.72
62038;BME280;47991;42.974;12.082;2024-02-16T05:50:22;98208.14;;;3.04;87.99
62038;BME280;47991;42.974;12.082;2024-02-16T05:52:49;98201.69;;;3.06;87.38
62038;BME280;47991;42.974;12.082;2024-02-16T05:55:17;98204.66;;;3.05;87.40
62038;BME280;47991;42.974;12.082;2024-02-16T05:57:48;98206.40;;;3.05;87.99
62038;BME280;47991;42.974;12.082;2024-02-16T06:00:15;98206.23;;;3.04;87.47
62038;BME280;47991;42.974;12.082;2024-02-16T06:02:43;98209.54;;;3.04;87.22
62038;BME280;47991;42.974;12.082;2024-02-16T06:05:10;98209.19;;;3.04;87.21
62038;BME280;47991;42.974;12.082;2024-02-16T06:07:37;98212.69;;;3.06;87.38
62038;BME280;47991;42.974;12.082;2024-02-16T06:10:05;98211.34;;;3.09;86.92
62038;BME280;47991;42.974;12.082;2024-02-16T06:12:37;98212.75;;;3.12;87.05
62038;BME280;47991;42.974;12.082;2024-02-16T06:15:05;98212.27;;;3.17;87.24
62038;BME280;47991;42.974;12.082;2024-02-16T06:17:33;98210.55;;;3.21;87.34
62038;BME280;47991;42.974;12.082;2024-02-16T06:20:00;98215.65;;;3.25;87.36
62038;BME280;47991;42.974;12.082;2024-02-16T06:22:29;98217.56;;;3.25;87.43
62038;BME280;47991;42.974;12.082;2024-02-16T06:24:58;98220.70;;;3.24;87.37
62038;BME280;47991;42.974;12.082;2024-02-16T06:27:25;98222.06;;;3.18;88.05
62038;BME280;47991;42.974;12.082;2024-02-16T06:29:52;98226.44;;;3.19;87.47
62038;BME280;47991;42.974;12.082;2024-02-16T06:32:19;98229.08;;;3.22;87.52
62038;BME280;47991;42.974;12.082;2024-02-16T06:34:47;98228.24;;;3.27;87.56
62038;BME280;47991;42.974;12.082;2024-02-16T06:37:13;98228.11;;;3.31;87.62
62038;BME280;47991;42.974;12.082;2024-02-16T06:39:42;98230.39;;;3.32;87.43
62038;BME280;47991;42.974;12.082;2024-02-16T06:42:10;98233.89;;;3.34;87.62
62038;BME280;47991;42.974;12.082;2024-02-16T06:44:39;98237.73;;;3.34;87.34
62038;BME280;47991;42.974;12.082;2024-02-16T06:47:06;98239.65;;;3.34;87.65
62038;BME280;47991;42.974;12.082;2024-02-16T06:49:34;98243.73;;;3.39;87.71
62038;BME280;47991;42.974;12.082;2024-02-16T06:52:01;98241.67;;;3.47;87.68
62038;BME280;47991;42.974;12.082;2024-02-16T06:54:28;98240.82;;;3.49;89.40
62038;BME280;47991;42.974;12.082;2024-02-16T06:56:55;98246.41;;;3.48;88.63
62038;BME280;47991;42.974;12.082;2024-02-16T06:59:22;98245.56;;;3.51;88.19
62038;BME280;47991;42.974;12.082;2024-02-16T07:01:49;98245.92;;;3.53;87.65
62038;BME280;47991;42.974;12.082;2024-02-16T07:04:16;98248.56;;;3.55;87.71
62038;BME280;47991;42.974;12.082;2024-02-16T07:06:44;98251.53;;;3.56;87.75
62038;BME280;47991;42.974;12.082;2024-02-16T07:09:11;98254.86;;;3.56;87.37
62038;BME280;47991;42.974;12.082;2024-02-16T07:11:42;98254.01;;;3.59;87.60
62038;BME280;47991;42.974;12.082;2024-02-16T07:14:09;98255.24;;;3.61;87.63
62038;BME280;47991;42.974;12.082;2024-02-16T07:16:36;98262.44;;;3.65;87.70
62038;BME280;47991;42.974;12.082;2024-02-16T07:19:03;98265.98;;;3.68;87.86
62038;BME280;47991;42.974;12.082;2024-02-16T07:21:30;98271.96;;;3.74;87.55
62038;BME280;47991;42.974;12.082;2024-02-16T07:23:57;98267.96;;;3.79;88.19
62038;BME280;47991;42.974;12.082;2024-02-16T07:26:24;98273.08;;;3.85;87.31
62038;BME280;47991;42.974;12.082;2024-02-16T07:28:51;98269.28;;;3.95;87.40
62038;BME280;47991;42.974;12.082;2024-02-16T07:31:19;98274.77;;;4.07;87.33
62038;BME280;47991;42.974;12.082;2024-02-16T07:33:46;98277.45;;;4.17;87.20
62038;BME280;47991;42.974;12.082;2024-02-16T07:36:13;98277.70;;;4.28;87.09
62038;BME280;47991;42.974;12.082;2024-02-16T07:38:41;98274.61;;;4.43;86.98
62038;BME280;47991;42.974;12.082;2024-02-16T07:41:09;98269.08;;;4.60;86.67
62038;BME280;47991;42.974;12.082;2024-02-16T07:43:36;98267.01;;;4.75;86.00
62038;BME280;47991;42.974;12.082;2024-02-16T07:46:04;98267.76;;;4.88;86.15
62038;BME280;47991;42.974;12.082;2024-02-16T07:48:31;98264.98;;;5.06;85.89
62038;BME280;47991;42.974;12.082;2024-02-16T07:50:57;98263.61;;;5.26;86.80
62038;BME280;47991;42.974;12.082;2024-02-16T07:53:29;98268.52;;;5.44;87.08
62038;BME280;47991;42.974;12.082;2024-02-16T07:55:58;98270.45;;;5.57;87.61
62038;BME280;47991;42.974;12.082;2024-02-16T07:58:25;98267.46;;;5.70;89.16
62038;BME280;47991;42.974;12.082;2024-02-16T08:00:52;98266.02;;;5.83;88.69
62038;BME280;47991;42.974;12.082;2024-02-16T08:03:21;98273.94;;;5.97;87.25
62038;BME280;47991;42.974;12.082;2024-02-16T08:05:48;98272.52;;;6.11;86.62
62038;BME280;47991;42.974;12.082;2024-02-16T08:08:16;98271.93;;;6.27;86.04
62038;BME280;47991;42.974;12.082;2024-02-16T08:10:43;98270.52;;;6.33;82.84
62038;BME280;47991;42.974;12.082;2024-02-16T08:13:11;98270.15;;;6.35;83.34
62038;BME280;47991;42.974;12.082;2024-02-16T08:15:38;98269.11;;;6.33;81.25
62038;BME280;47991;42.974;12.082;2024-02-16T08:18:06;98267.03;;;6.28;78.90
62038;BME280;47991;42.974;12.082;2024-02-16T08:20:33;98263.69;;;6.26;79.06
62038;BME280;47991;42.974;12.082;2024-02-16T08:23:00;98270.00;;;6.31;80.32
62038;BME280;47991;42.974;12.082;2024-02-16T08:25:27;98267.19;;;6.32;79.79
62038;BME280;47991;42.974;12.082;2024-02-16T08:27:55;98272.08;;;6.40;79.31
62038;BME280;47991;42.974;12.082;2024-02-16T08:30:21;98272.92;;;6.47;78.79
62038;BME280;47991;42.974;12.082;2024-02-16T08:32:48;98270.97;;;6.56;78.34
62038;BME280;47991;42.974;12.082;2024-02-16T08:35:16;98266.16;;;6.69;77.27
62038;BME280;47991;42.974;12.082;2024-02-16T08:37:43;98268.84;;;6.93;78.07
62038;BME280;47991;42.974;12.082;2024-02-16T08:40:15;98262.91;;;7.13;78.21
62038;BME280;47991;42.974;12.082;2024-02-16T08:42:42;98263.89;;;7.24;76.18
62038;BME280;47991;42.974;12.082;2024-02-16T08:45:10;98262.91;;;7.40;77.33
62038;BME280;47991;42.974;12.082;2024-02-16T08:47:38;98263.33;;;7.53;77.73
62038;BME280;47991;42.974;12.082;2024-02-16T08:50:06;98262.77;;;7.57;76.17
62038;BME280;47991;42.974;12.082;2024-02-16T08:52:33;98260.20;;;7.68;77.83
62038;BME280;47991;42.974;12.082;2024-02-16T08:55:01;98259.59;;;7.78;76.82
62038;BME280;47991;42.974;12.082;2024-02-16T08:57:28;98259.26;;;7.76;75.52
62038;BME280;47991;42.974;12.082;2024-02-16T08:59:55;98257.56;;;7.68;76.06
62038;BME280;47991;42.974;12.082;2024-02-16T09:02:23;98259.29;;;7.73;76.00
62038;BME280;47991;42.974;12.082;2024-02-16T09:04:50;98258.17;;;7.78;76.21
62038;BME280;47991;42.974;12.082;2024-02-16T09:07:17;98259.07;;;7.76;74.69
62038;BME280;47991;42.974;12.082;2024-02-16T09:09:44;98262.73;;;7.80;75.33
62038;BME280;47991;42.974;12.082;2024-02-16T09:12:11;98261.09;;;7.87;75.22
62038;BME280;47991;42.974;12.082;2024-02-16T09:14:38;98263.61;;;8.00;75.28
62038;BME280;47991;42.974;12.082;2024-02-16T09:17:05;98263.58;;;8.01;75.07
62038;BME280;47991;42.974;12.082;2024-02-16T09:19:32;98264.94;;;8.08;75.27
62038;BME280;47991;42.974;12.082;2024-02-16T09:21:59;98265.14;;;8.21;74.82
62038;BME280;47991;42.974;12.082;2024-02-16T09:24:29;98260.38;;;8.38;74.35
62038;BME280;47991;42.974;12.082;2024-02-16T09:26:57;98256.06;;;8.47;74.64
62038;BME280;47991;42.974;12.082;2024-02-16T09:29:27;98259.10;;;8.58;74.22
62038;BME280;47991;42.974;12.082;2024-02-16T09:31:55;98264.33;;;8.64;72.89
62038;BME280;47991;42.974;12.082;2024-02-16T09:34:22;98261.04;;;8.72;71.98
62038;BME280;47991;42.974;12.082;2024-02-16T09:36:49;98261.86;;;8.89;73.05
62038;BME280;47991;42.974;12.082;2024-02-16T09:39:16;98258.64;;;9.06;72.62
62038;BME280;47991;42.974;12.082;2024-02-16T09:41:49;98260.59;;;9.06;70.73
62038;BME280;47991;42.974;12.082;2024-02-16T09:44:17;98260.84;;;9.24;70.83
62038;BME280;47991;42.974;12.082;2024-02-16T09:46:44;98266.13;;;9.48;70.17
62038;BME280;47991;42.974;12.082;2024-02-16T09:49:12;98267.42;;;9.66;68.71
62038;BME280;47991;42.974;12.082;2024-02-16T09:51:39;98273.73;;;9.79;65.51
62038;BME280;47991;42.974;12.082;2024-02-16T09:54:43;98271.84;;;9.96;66.52
62038;BME280;47991;42.974;12.082;2024-02-16T09:57:10;98272.23;;;10.23;65.56
62038;BME280;47991;42.974;12.082;2024-02-16T09:59:37;98270.81;;;10.33;62.59
62038;BME280;47991;42.974;12.082;2024-02-16T10:02:04;98270.77;;;10.37;60.68
62038;BME280;47991;42.974;12.082;2024-02-16T10:04:34;98262.01;;;11.09;59.22
62038;BME280;47991;42.974;12.082;2024-02-16T10:07:02;98264.95;;;11.50;59.80
62038;BME280;47991;42.974;12.082;2024-02-16T10:09:30;98262.42;;;11.74;59.07
62038;BME280;47991;42.974;12.082;2024-02-16T10:11:59;98261.85;;;11.90;59.40
62038;BME280;47991;42.974;12.082;2024-02-16T10:14:27;98261.14;;;11.98;57.64
62038;BME280;47991;42.974;12.082;2024-02-16T10:17:02;98262.07;;;12.03;58.77
62038;BME280;47991;42.974;12.082;2024-02-16T10:19:30;98261.92;;;12.28;59.95
62038;BME280;47991;42.974;12.082;2024-02-16T10:22:16;98257.17;;;12.27;58.12
62038;BME280;47991;42.974;12.082;2024-02-16T10:24:43;98259.83;;;12.40;60.27
62038;BME280;47991;42.974;12.082;2024-02-16T10:27:17;98255.52;;;12.42;60.06
62038;BME280;47991;42.974;12.082;2024-02-16T10:29:46;98256.66;;;12.46;59.56
62038;BME280;47991;42.974;12.082;2024-02-16T10:32:16;98257.83;;;12.23;57.33
62038;BME280;47991;42.974;12.082;2024-02-16T10:34:46;98257.05;;;11.97;58.22
62038;BME280;47991;42.974;12.082;2024-02-16T10:37:15;98259.59;;;12.03;60.56
62038;BME280;47991;42.974;12.082;2024-02-16T10:39:44;98254.77;;;11.97;58.21
62038;BME280;47991;42.974;12.082;2024-02-16T10:42:13;98256.52;;;12.11;60.35
62038;BME280;47991;42.974;12.082;2024-02-16T10:44:42;98257.28;;;12.16;59.13
62038;BME280;47991;42.974;12.082;2024-02-16T10:47:10;98254.52;;;12.27;61.16
62038;BME280;47991;42.974;12.082;2024-02-16T10:49:37;98251.35;;;12.26;59.49
62038;BME280;47991;42.974;12.082;2024-02-16T10:52:05;98247.66;;;12.25;59.79
62038;BME280;47991;42.974;12.082;2024-02-16T10:54:34;98244.55;;;12.22;59.19
62038;BME280;47991;42.974;12.082;2024-02-16T10:57:08;98241.07;;;12.19;59.24
62038;BME280;47991;42.974;12.082;2024-02-16T10:59:43;98235.98;;;12.10;57.90
62038;BME280;47991;42.974;12.082;2024-02-16T11:02:11;98234.35;;;12.12;59.74
62038;BME280;47991;42.974;12.082;2024-02-16T11:04:40;98231.25;;;12.22;59.49
62038;BME280;47991;42.974;12.082;2024-02-16T11:07:11;98231.31;;;12.32;60.03
62038;BME280;47991;42.974;12.082;2024-02-16T11:09:39;98230.80;;;12.32;59.56
62038;BME280;47991;42.974;12.082;2024-02-16T11:12:07;98229.77;;;12.18;60.08
62038;BME280;47991;42.974;12.082;2024-02-16T11:14:39;98225.16;;;12.24;60.15
62038;BME280;47991;42.974;12.082;2024-02-16T11:17:10;98221.19;;;12.33;60.69
62038;BME280;47991;42.974;12.082;2024-02-16T11:19:41;98216.52;;;12.54;59.93
62038;BME280;47991;42.974;12.082;2024-02-16T11:22:09;98213.88;;;12.77;59.91
62038;BME280;47991;42.974;12.082;2024-02-16T11:24:43;98210.90;;;12.88;58.33
62038;BME280;47991;42.974;12.082;2024-02-16T11:27:15;98206.95;;;12.83;56.90
62038;BME280;47991;42.974;12.082;2024-02-16T11:29:49;98204.86;;;12.88;58.90
62038;BME280;47991;42.974;12.082;2024-02-16T11:32:18;98207.79;;;13.03;59.45
62038;BME280;47991;42.974;12.082;2024-02-16T11:34:46;98206.50;;;13.32;59.39
62038;BME280;47991;42.974;12.082;2024-02-16T11:37:13;98204.30;;;13.62;56.79
62038;BME280;47991;42.974;12.082;2024-02-16T11:39:41;98199.05;;;13.60;56.43
62038;BME280;47991;42.974;12.082;2024-02-16T11:42:12;98199.80;;;13.59;56.00
62038;BME280;47991;42.974;12.082;2024-02-16T11:44:41;98196.80;;;13.69;56.28
62038;BME280;47991;42.974;12.082;2024-02-16T11:47:19;98190.59;;;13.89;56.15
62038;BME280;47991;42.974;12.082;2024-02-16T11:52:29;98186.11;;;13.95;55.57
62038;BME280;47991;42.974;12.082;2024-02-16T11:54:56;98184.41;;;13.93;55.67
62038;BME280;47991;42.974;12.082;2024-02-16T11:57:27;98182.21;;;13.95;55.66
62038;BME280;47991;42.974;12.082;2024-02-16T11:59:54;98177.94;;;14.00;55.03
62038;BME280;47991;42.974;12.082;2024-02-16T12:02:24;98176.77;;;14.03;54.19
62038;BME280;47991;42.974;12.082;2024-02-16T12:04:58;98172.16;;;14.08;55.09
62038;BME280;47991;42.974;12.082;2024-02-16T12:07:27;98170.60;;;14.11;53.85
62038;BME280;47991;42.974;12.082;2024-02-16T12:09:59;98166.70;;;14.16;54.42
62038;BME280;47991;42.974;12.082;2024-02-16T12:12:27;98169.14;;;14.12;54.02
62038;BME280;47991;42.974;12.082;2024-02-16T12:14:54;98165.27;;;14.26;54.97
62038;BME280;47991;42.974;12.082;2024-02-16T12:17:22;98161.80;;;14.38;53.30
62038;BME280;47991;42.974;12.082;2024-02-16T12:19:50;98154.67;;;14.48;53.67
62038;BME280;47991;42.974;12.082;2024-02-16T12:22:21;98150.73;;;14.53;53.08
62038;BME280;47991;42.974;12.082;2024-02-16T12:24:49;98155.59;;;14.62;54.59
62038;BME280;47991;42.974;12.082;2024-02-16T12:27:19;98152.83;;;14.64;53.56
62038;BME280;47991;42.974;12.082;2024-02-16T12:29:46;98153.44;;;14.71;52.42
62038;BME280;47991;42.974;12.082;2024-02-16T12:32:13;98150.47;;;14.84;54.34
62038;BME280;47991;42.974;12.082;2024-02-16T12:34:45;98147.55;;;14.90;52.32
62038;BME280;47991;42.974;12.082;2024-02-16T12:37:13;98144.96;;;14.97;52.07
62038;BME280;47991;42.974;12.082;2024-02-16T12:39:40;98141.08;;;15.05;49.80
62038;BME280;47991;42.974;12.082;2024-02-16T12:42:07;98143.64;;;15.21;52.65
62038;BME280;47991;42.974;12.082;2024-02-16T12:44:34;98143.06;;;15.35;52.56
62038;BME280;47991;42.974;12.082;2024-02-16T12:47:02;98141.00;;;15.42;51.06
62038;BME280;47991;42.974;12.082;2024-02-16T12:49:29;98141.37;;;15.33;47.01
62038;BME280;47991;42.974;12.082;2024-02-16T12:51:56;98137.25;;;15.42;48.82
62038;BME280;47991;42.974;12.082;2024-02-16T12:54:23;98134.61;;;15.49;50.53
62038;BME280;47991;42.974;12.082;2024-02-16T12:56:51;98131.30;;;15.56;51.14
62038;BME280;47991;42.974;12.082;2024-02-16T12:59:19;98127.58;;;15.60;49.87
62038;BME280;47991;42.974;12.082;2024-02-16T13:01:47;98124.27;;;15.58;48.77
62038;BME280;47991;42.974;12.082;2024-02-16T13:04:14;98119.48;;;15.57;50.68
62038;BME280;47991;42.974;12.082;2024-02-16T13:06:48;98119.65;;;15.62;47.50
62038;BME280;47991;42.974;12.082;2024-02-16T13:09:15;98116.81;;;15.57;46.64